Time;durP1;ratioP1;P1;durP2;ratioP2;P2;SDS_P1;SDS_P2;PMS_P1;PMS_P2;Temp;Humidity;BMP_temperature;BMP_pressure;BME280_temperature;BME280_humidity;BME280_pressure;Samples;Min_cycle;Max_cycle;Signal;HPM_P1;HPM_P2
2022/03/19 00:01:55;;;;;;;366.58;156.00;;;-0.40;1.00;;;;;;5075260;28;20082;-78
2022/03/19 00:04:22;;;;;;;319.20;138.75;;;-0.50;1.00;;;;;;5074073;28;20032;-75
2022/03/19 00:06:50;;;;;;;286.00;125.68;;;-0.60;1.00;;;;;;5075151;28;20040;-77
2022/03/19 00:09:17;;;;;;;228.00;103.60;;;-0.70;1.00;;;;;;5075309;28;20045;-77
2022/03/19 00:11:45;;;;;;;240.02;110.22;;;-0.70;1.00;;;;;;5073400;28;20046;-78
2022/03/19 00:14:14;;;;;;;201.35;99.10;;;-0.70;1.00;;;;;;5074144;28;20067;-77
2022/03/19 00:16:42;;;;;;;218.85;105.55;;;-0.70;1.00;;;;;;5074758;28;20041;-77
2022/03/19 00:19:11;;;;;;;213.35;106.93;;;-0.70;1.00;;;;;;5072805;28;20048;-77
2022/03/19 00:21:39;;;;;;;198.85;101.25;;;-0.70;1.00;;;;;;5074220;28;20045;-77
2022/03/19 00:24:08;;;;;;;209.13;103.03;;;-0.70;1.00;;;;;;5073942;28;20045;-77
2022/03/19 00:26:36;;;;;;;208.45;103.32;;;-0.70;1.00;;;;;;5074015;28;20044;-76
2022/03/19 00:29:03;;;;;;;223.20;104.53;;;-0.80;1.00;;;;;;5074306;28;20095;-77
2022/03/19 00:31:32;;;;;;;249.43;108.35;;;-0.90;1.00;;;;;;5073821;28;20040;-77
2022/03/19 00:34:00;;;;;;;195.57;95.97;;;-0.90;1.00;;;;;;5077028;28;20072;-77
2022/03/19 00:36:30;;;;;;;186.73;92.78;;;-0.90;1.00;;;;;;5073500;28;20044;-77
2022/03/19 00:38:58;;;;;;;179.20;89.35;;;-0.90;1.00;;;;;;5075178;28;20115;-78
2022/03/19 00:41:26;;;;;;;183.88;88.78;;;-0.90;1.00;;;;;;5083692;28;20046;-78
2022/03/19 00:43:53;;;;;;;175.30;86.18;;;-0.90;1.00;;;;;;5088599;28;20037;-78
2022/03/19 00:46:20;;;;;;;187.02;90.20;;;-0.90;1.00;;;;;;5075336;28;20407;-76
2022/03/19 00:48:48;;;;;;;241.32;107.63;;;-1.00;1.00;;;;;;5073636;28;20496;-77
2022/03/19 00:51:16;;;;;;;177.82;88.72;;;-1.00;1.00;;;;;;5073966;28;20127;-77
2022/03/19 00:53:44;;;;;;;205.65;97.20;;;-1.10;2.10;;;;;;5053547;28;20049;-77
2022/03/19 00:56:12;;;;;;;219.48;101.47;;;-1.00;4.30;;;;;;5062202;28;20092;-78
2022/03/19 00:58:39;;;;;;;153.77;77.82;;;-1.10;6.10;;;;;;5074365;28;20052;-78
2022/03/19 01:01:07;;;;;;;155.18;77.80;;;-1.10;15.20;;;;;;5074255;28;20045;-77
2022/03/19 01:03:34;;;;;;;161.68;77.72;;;-1.00;19.10;;;;;;5074360;28;20037;-77
2022/03/19 01:06:02;;;;;;;161.80;78.97;;;-1.00;16.40;;;;;;5073928;28;20036;-78
2022/03/19 01:08:29;;;;;;;176.50;81.43;;;-1.00;17.50;;;;;;5072024;28;20085;-76
2022/03/19 01:10:58;;;;;;;168.55;79.75;;;-1.10;13.50;;;;;;5072483;28;20132;-77
2022/03/19 01:13:26;;;;;;;155.90;75.82;;;-1.10;16.40;;;;;;5074098;28;20045;-76
2022/03/19 01:15:54;;;;;;;158.07;75.13;;;-1.10;25.60;;;;;;5077318;28;20075;-77
2022/03/19 01:18:21;;;;;;;164.65;74.55;;;-1.20;28.90;;;;;;5079196;28;20578;-77
2022/03/19 01:20:49;;;;;;;147.23;68.50;;;-1.20;32.20;;;;;;5076132;28;20044;-77
2022/03/19 01:23:16;;;;;;;152.93;72.32;;;-1.20;38.50;;;;;;5078660;28;20131;-78
2022/03/19 01:25:44;;;;;;;148.20;72.65;;;-1.20;34.00;;;;;;5077082;28;20139;-77
2022/03/19 01:28:14;;;;;;;155.80;75.43;;;-1.30;46.40;;;;;;5077970;28;20040;-78
2022/03/19 01:30:41;;;;;;;157.52;77.03;;;-1.30;67.70;;;;;;5077053;28;20059;-78
2022/03/19 01:33:09;;;;;;;142.63;71.32;;;-1.30;79.70;;;;;;5077881;28;20061;-78
2022/03/19 01:35:36;;;;;;;142.88;70.03;;;-1.30;96.50;;;;;;5076831;28;20067;-77
2022/03/19 01:38:05;;;;;;;119.00;56.45;;;-1.40;84.90;;;;;;5078157;28;20052;-78
2022/03/19 01:40:32;;;;;;;119.35;54.83;;;-1.40;94.20;;;;;;5076961;28;20044;-77
2022/03/19 01:43:01;;;;;;;120.40;59.42;;;-1.50;99.10;;;;;;5075631;28;20048;-77
2022/03/19 01:45:30;;;;;;;123.15;57.97;;;-1.50;99.90;;;;;;5076379;28;20045;-78
2022/03/19 01:47:58;;;;;;;119.80;56.75;;;-1.50;99.90;;;;;;5078014;28;20037;-78
2022/03/19 01:50:27;;;;;;;115.95;58.67;;;-1.50;99.90;;;;;;5077545;28;20039;-77
2022/03/19 01:52:55;;;;;;;120.68;59.03;;;-1.50;99.90;;;;;;5075975;28;20052;-77
2022/03/19 01:55:25;;;;;;;127.85;62.22;;;-1.50;99.90;;;;;;5077835;28;20123;-78
2022/03/19 01:57:54;;;;;;;118.28;56.22;;;-1.60;99.90;;;;;;5078332;28;20039;-77
2022/03/19 02:00:24;;;;;;;110.75;55.30;;;-1.70;99.90;;;;;;5077859;28;20029;-77
2022/03/19 02:02:54;;;;;;;123.45;62.38;;;-1.80;99.90;;;;;;5077305;28;20099;-77
2022/03/19 02:05:23;;;;;;;145.35;75.82;;;-1.80;99.90;;;;;;5079645;28;20021;-76
2022/03/19 02:07:52;;;;;;;139.98;73.88;;;-1.80;99.90;;;;;;5101117;28;20028;-76
2022/03/19 02:10:22;;;;;;;136.27;69.63;;;-1.80;99.90;;;;;;5100252;28;20041;-77
2022/03/19 02:12:52;;;;;;;123.50;66.50;;;-1.80;99.90;;;;;;5100539;28;20044;-75
2022/03/19 02:15:20;;;;;;;122.95;66.75;;;-1.80;99.90;;;;;;5100782;28;20032;-76
2022/03/19 02:17:48;;;;;;;119.07;63.90;;;-1.90;99.90;;;;;;5100928;28;20027;-77
2022/03/19 02:20:18;;;;;;;115.03;62.97;;;-1.90;99.90;;;;;;5094032;28;20020;-76
2022/03/19 02:25:34;;;;;;;123.05;66.57;;;-1.90;99.90;;;;;;5099651;28;20047;-75
2022/03/19 02:25:37;;;;;;;110.72;60.10;;;-2.00;99.90;;;;;;5087588;28;20021;-75
2022/03/19 02:28:05;;;;;;;114.72;59.70;;;-2.00;99.90;;;;;;5098744;28;20020;-77
2022/03/19 02:30:39;;;;;;;114.63;57.85;;;-2.00;99.90;;;;;;5100524;28;20019;-75
2022/03/19 02:33:08;;;;;;;97.63;52.03;;;-2.00;99.90;;;;;;5103128;27;20048;-76
2022/03/19 02:35:35;;;;;;;79.60;46.15;;;-2.00;99.90;;;;;;5110488;27;20037;-76
2022/03/19 02:38:03;;;;;;;89.57;48.38;;;-2.00;99.90;;;;;;5100161;28;20016;-74
2022/03/19 02:40:30;;;;;;;89.18;49.25;;;-1.90;99.90;;;;;;5099974;28;20028;-77
2022/03/19 02:42:59;;;;;;;90.38;50.35;;;-1.90;99.90;;;;;;5100089;28;20029;-77
2022/03/19 02:45:27;;;;;;;82.60;46.08;;;-2.00;99.90;;;;;;5091758;28;20041;-75
2022/03/19 02:48:01;;;;;;;85.15;48.90;;;-2.10;99.90;;;;;;5075704;28;20032;-76
2022/03/19 02:50:31;;;;;;;78.38;44.45;;;-2.10;99.90;;;;;;5076422;28;20109;-76
2022/03/19 02:52:59;;;;;;;75.82;42.67;;;-2.10;99.90;;;;;;5073964;28;20050;-77
2022/03/19 02:55:31;;;;;;;74.47;41.88;;;-2.10;99.90;;;;;;5074881;28;20045;-76
2022/03/19 02:58:00;;;;;;;75.30;41.53;;;-2.20;99.90;;;;;;5074922;28;20048;-77
2022/03/19 03:00:29;;;;;;;91.90;50.45;;;-2.20;99.90;;;;;;5076369;28;20096;-76
2022/03/19 03:02:56;;;;;;;102.13;55.55;;;-2.20;99.90;;;;;;5075122;28;20044;-76
2022/03/19 03:05:24;;;;;;;94.05;50.00;;;-2.20;99.90;;;;;;5076337;28;20083;-76
2022/03/19 03:07:51;;;;;;;92.07;50.05;;;-2.20;99.90;;;;;;5076425;28;20502;-76
2022/03/19 03:10:21;;;;;;;104.82;55.30;;;-2.20;99.90;;;;;;5075981;28;20044;-76
2022/03/19 03:12:48;;;;;;;108.28;57.60;;;-2.30;99.90;;;;;;5073682;28;20045;-76
2022/03/19 03:15:17;;;;;;;100.78;55.33;;;-2.30;99.90;;;;;;5075418;28;20479;-76
2022/03/19 03:17:45;;;;;;;94.60;50.15;;;-2.30;99.90;;;;;;5075158;28;20037;-77
2022/03/19 03:20:13;;;;;;;94.82;51.85;;;-2.40;99.90;;;;;;5076253;28;20043;-77
2022/03/19 03:22:44;;;;;;;98.75;53.92;;;-2.40;99.90;;;;;;5076063;28;20051;-76
2022/03/19 03:25:11;;;;;;;89.75;49.08;;;-2.40;99.90;;;;;;5075490;28;20052;-77
2022/03/19 03:27:39;;;;;;;83.32;46.63;;;-2.40;99.90;;;;;;5076072;28;20033;-77
2022/03/19 03:30:08;;;;;;;87.70;47.45;;;-2.40;99.90;;;;;;5082731;28;20048;-77
2022/03/19 03:32:37;;;;;;;76.63;44.60;;;-2.40;99.90;;;;;;5085690;28;20057;-78
2022/03/19 03:35:05;;;;;;;72.60;41.15;;;-2.50;99.90;;;;;;5094447;28;20044;-77
2022/03/19 03:37:33;;;;;;;73.75;40.17;;;-2.50;99.90;;;;;;5053696;28;20049;-77
2022/03/19 03:40:00;;;;;;;71.15;38.28;;;-2.60;99.90;;;;;;5055027;28;20442;-77
2022/03/19 03:42:29;;;;;;;73.65;39.78;;;-2.60;99.90;;;;;;5076151;28;20045;-76
2022/03/19 03:44:58;;;;;;;76.75;42.42;;;-2.60;99.90;;;;;;5096552;28;20079;-76
2022/03/19 03:47:26;;;;;;;75.85;41.70;;;-2.60;99.90;;;;;;5096093;28;20051;-77
2022/03/19 03:49:55;;;;;;;79.72;42.45;;;-2.50;99.90;;;;;;5075884;28;20139;-76
2022/03/19 03:52:22;;;;;;;85.43;45.80;;;-2.50;99.90;;;;;;5075324;28;20047;-76
2022/03/19 03:54:50;;;;;;;107.18;57.08;;;-2.60;99.90;;;;;;5075389;28;20119;-76
2022/03/19 03:57:18;;;;;;;120.13;60.22;;;-2.70;99.90;;;;;;5074435;28;20041;-77
2022/03/19 03:59:45;;;;;;;124.47;61.92;;;-2.70;99.90;;;;;;5073536;28;20032;-77
2022/03/19 04:02:13;;;;;;;111.78;58.55;;;-2.80;99.90;;;;;;5074033;28;20036;-77
2022/03/19 04:04:41;;;;;;;112.57;59.42;;;-2.70;99.90;;;;;;5073874;28;20124;-77
2022/03/19 04:07:10;;;;;;;106.93;57.33;;;-2.70;99.90;;;;;;5073677;28;20045;-77
2022/03/19 04:09:38;;;;;;;98.10;53.40;;;-2.70;99.90;;;;;;5073907;28;20051;-77
2022/03/19 04:12:06;;;;;;;88.55;50.10;;;-2.70;99.90;;;;;;5074626;28;20047;-78
2022/03/19 04:14:33;;;;;;;81.35;45.78;;;-2.70;99.90;;;;;;5074548;28;20041;-77
2022/03/19 04:17:02;;;;;;;83.68;44.60;;;-2.70;99.90;;;;;;5074299;28;20118;-77
2022/03/19 04:19:29;;;;;;;87.55;41.70;;;-2.60;99.90;;;;;;5067511;28;20133;-76
2022/03/19 04:21:57;;;;;;;72.53;39.35;;;-2.70;99.90;;;;;;5068696;28;20037;-75
2022/03/19 04:24:26;;;;;;;80.57;42.83;;;-2.70;99.90;;;;;;5073973;28;20048;-76
2022/03/19 04:26:54;;;;;;;67.93;38.45;;;-2.70;99.90;;;;;;5074366;28;20116;-76
2022/03/19 04:29:22;;;;;;;83.45;42.25;;;-2.80;99.90;;;;;;5073490;28;20388;-77
2022/03/19 04:31:49;;;;;;;118.30;62.22;;;-2.80;99.90;;;;;;5075119;28;20048;-76
2022/03/19 04:34:17;;;;;;;119.95;60.35;;;-2.80;99.90;;;;;;5071985;28;20048;-76
2022/03/19 04:36:44;;;;;;;114.07;55.13;;;-2.90;99.90;;;;;;5067444;28;20036;-74
2022/03/19 04:39:12;;;;;;;136.70;67.20;;;-2.90;99.90;;;;;;5065365;28;20135;-76
2022/03/19 04:41:41;;;;;;;136.60;66.72;;;-2.90;99.90;;;;;;5071946;28;20063;-77
2022/03/19 04:44:09;;;;;;;165.57;77.68;;;-2.90;99.90;;;;;;5075033;28;20049;-77
2022/03/19 04:46:37;;;;;;;163.38;83.00;;;-2.90;99.90;;;;;;5078464;28;20046;-77
2022/03/19 04:49:05;;;;;;;165.55;85.63;;;-3.10;99.90;;;;;;5077033;28;20098;-76
2022/03/19 04:51:34;;;;;;;222.73;108.88;;;-3.20;99.90;;;;;;5079523;28;20051;-77
2022/03/19 04:54:02;;;;;;;209.15;104.15;;;-3.20;99.90;;;;;;5079592;28;20048;-77
2022/03/19 04:56:31;;;;;;;164.93;83.20;;;-3.20;99.90;;;;;;5077548;28;20047;-78
2022/03/19 04:59:04;;;;;;;157.18;79.43;;;-3.20;99.90;;;;;;5078787;28;20141;-76
2022/03/19 05:01:33;;;;;;;112.40;60.97;;;-3.10;99.90;;;;;;5078872;28;20049;-77
2022/03/19 05:04:01;;;;;;;109.53;59.83;;;-3.00;99.90;;;;;;5079405;28;20047;-77
2022/03/19 05:06:29;;;;;;;107.93;58.17;;;-2.90;99.90;;;;;;5078077;28;20055;-77
2022/03/19 05:11:38;;;;;;;104.30;57.95;;;-2.80;99.90;;;;;;5076142;28;20044;-77
2022/03/19 05:14:07;;;;;;;107.97;58.08;;;-2.80;99.90;;;;;;5078262;28;20037;-77
2022/03/19 05:16:35;;;;;;;101.78;57.53;;;-2.70;99.90;;;;;;5078514;28;20068;-77
2022/03/19 05:19:03;;;;;;;89.55;50.90;;;-2.70;99.90;;;;;;5078206;28;20079;-77
2022/03/19 05:21:30;;;;;;;93.07;51.72;;;-2.60;99.90;;;;;;5078515;28;20041;-77
2022/03/19 05:23:58;;;;;;;103.63;58.08;;;-2.70;99.90;;;;;;5076883;28;20045;-77
2022/03/19 05:26:26;;;;;;;107.22;60.67;;;-2.60;99.90;;;;;;5080105;28;20055;-77
2022/03/19 05:28:54;;;;;;;110.63;59.58;;;-2.60;99.90;;;;;;5079823;28;20502;-78
2022/03/19 05:31:25;;;;;;;120.90;59.80;;;-2.50;99.90;;;;;;5080324;28;20487;-77
2022/03/19 05:36:39;;;;;;;90.60;51.92;;;-2.40;99.90;;;;;;5072697;28;20037;-77
2022/03/19 05:39:06;;;;;;;106.22;54.83;;;-2.30;99.90;;;;;;5077233;28;20089;-75
2022/03/19 05:41:34;;;;;;;108.70;56.63;;;-2.30;99.90;;;;;;5073961;28;20052;-75
2022/03/19 05:44:01;;;;;;;105.05;56.00;;;-2.20;99.90;;;;;;5060189;28;20047;-74
2022/03/19 05:46:30;;;;;;;102.82;54.10;;;-2.10;99.90;;;;;;5067131;28;20040;-75
2022/03/19 05:48:58;;;;;;;103.82;53.63;;;-2.00;99.90;;;;;;5081379;28;20399;-75
2022/03/19 05:51:26;;;;;;;98.88;51.25;;;-1.90;99.90;;;;;;5080637;28;20138;-75
2022/03/19 05:53:53;;;;;;;95.20;49.60;;;-1.90;99.90;;;;;;5072024;28;20047;-77
2022/03/19 05:56:21;;;;;;;96.32;51.70;;;-1.70;99.90;;;;;;5068948;28;20119;-77
2022/03/19 05:58:49;;;;;;;98.03;50.72;;;-1.60;99.90;;;;;;5078310;28;20140;-75
2022/03/19 06:01:16;;;;;;;97.10;49.30;;;-1.60;99.90;;;;;;5071955;28;20048;-76
2022/03/19 06:03:45;;;;;;;101.10;50.58;;;-1.30;99.90;;;;;;5076936;28;20067;-77
2022/03/19 06:06:13;;;;;;;90.80;46.10;;;-1.20;99.90;;;;;;5072326;28;20043;-76
2022/03/19 06:08:40;;;;;;;95.35;47.90;;;-1.10;99.90;;;;;;5079555;28;20046;-75
2022/03/19 06:11:10;;;;;;;101.43;49.65;;;-1.00;99.90;;;;;;5081048;28;20483;-75
2022/03/19 06:13:37;;;;;;;92.70;47.53;;;-0.90;99.90;;;;;;5081213;28;20139;-76
2022/03/19 06:16:06;;;;;;;92.32;46.65;;;-0.70;99.90;;;;;;5082756;28;20079;-76
2022/03/19 06:18:33;;;;;;;84.32;43.28;;;-0.50;99.90;;;;;;5081628;28;20102;-76
2022/03/19 06:21:03;;;;;;;84.45;43.85;;;-0.30;99.90;;;;;;5092708;28;20105;-76
2022/03/19 06:23:31;;;;;;;82.82;43.85;;;-0.10;95.20;;;;;;5094836;28;20044;-78
2022/03/19 06:25:58;;;;;;;84.45;45.53;;;0.20;68.10;;;;;;5092711;28;20041;-76
2022/03/19 06:28:26;;;;;;;83.68;44.30;;;0.30;36.00;;;;;;5093260;28;20032;-76
2022/03/19 06:30:55;;;;;;;80.03;45.72;;;0.50;21.80;;;;;;5093156;28;20036;-76
2022/03/19 06:33:22;;;;;;;74.35;42.50;;;0.70;1.20;;;;;;5095933;28;20092;-77
2022/03/19 06:38:36;;;;;;;77.65;41.00;;;1.10;1.00;;;;;;5088842;28;20092;-76
2022/03/19 06:41:04;;;;;;;75.95;43.13;;;1.30;1.00;;;;;;5095562;28;20482;-76
2022/03/19 06:43:32;;;;;;;84.30;46.47;;;1.50;1.00;;;;;;5086188;28;20048;-76
2022/03/19 06:46:00;;;;;;;93.88;50.40;;;1.70;1.00;;;;;;5088414;28;20044;-76
2022/03/19 06:48:28;;;;;;;95.75;53.45;;;1.80;1.00;;;;;;5081885;28;20032;-75
2022/03/19 06:50:56;;;;;;;106.15;58.15;;;2.00;1.00;;;;;;5081772;28;20048;-77
2022/03/19 06:53:24;;;;;;;101.43;57.55;;;2.00;1.00;;;;;;5089693;28;20101;-76
2022/03/19 06:55:55;;;;;;;103.45;58.97;;;2.10;1.00;;;;;;5089416;28;20125;-77
2022/03/19 06:58:22;;;;;;;94.72;54.90;;;2.20;1.00;;;;;;5090349;28;20039;-75
2022/03/19 07:00:50;;;;;;;100.47;55.10;;;2.50;1.00;;;;;;5090922;28;20487;-75
2022/03/19 07:03:17;;;;;;;98.82;54.80;;;2.70;1.00;;;;;;5090462;28;20074;-75
2022/03/19 07:05:45;;;;;;;97.47;55.03;;;2.90;1.00;;;;;;5087522;28;20165;-76
2022/03/19 07:08:12;;;;;;;95.47;55.33;;;3.10;1.00;;;;;;5076701;28;20040;-75
2022/03/19 07:10:40;;;;;;;93.53;52.30;;;3.40;1.00;;;;;;5076975;28;20054;-75
2022/03/19 07:13:09;;;;;;;89.97;51.65;;;3.50;1.00;;;;;;5075079;28;20071;-75
2022/03/19 07:15:37;;;;;;;89.15;49.45;;;3.70;1.00;;;;;;5077167;28;20532;-76
2022/03/19 07:18:11;;;;;;;73.47;44.72;;;3.80;1.00;;;;;;5077256;28;20044;-76
2022/03/19 07:20:39;;;;;;;72.55;41.42;;;4.00;1.00;;;;;;5076639;28;20415;-76
2022/03/19 07:23:08;;;;;;;51.92;32.53;;;4.20;1.00;;;;;;5078057;28;20041;-76
2022/03/19 07:25:38;;;;;;;71.93;41.53;;;4.20;1.00;;;;;;5077632;28;20055;-76
2022/03/19 07:28:10;;;;;;;60.47;37.00;;;4.40;1.00;;;;;;5075898;28;20087;-76
2022/03/19 07:30:38;;;;;;;59.45;35.92;;;4.60;1.00;;;;;;5078880;28;20048;-76
2022/03/19 07:33:06;;;;;;;71.53;38.85;;;4.80;1.00;;;;;;5077543;28;20048;-76
2022/03/19 07:35:33;;;;;;;57.95;34.67;;;4.80;1.00;;;;;;5064617;28;20041;-76
2022/03/19 07:38:02;;;;;;;59.65;36.03;;;5.20;1.00;;;;;;5064405;28;20486;-76
2022/03/19 07:43:16;;;;;;;68.35;36.65;;;6.10;1.00;;;;;;5074263;28;20068;-76
2022/03/19 07:45:44;;;;;;;65.63;37.20;;;6.40;1.00;;;;;;5074777;28;20047;-76
2022/03/19 07:48:11;;;;;;;66.05;35.45;;;6.70;1.00;;;;;;5074806;28;20036;-76
2022/03/19 07:50:40;;;;;;;68.43;36.25;;;6.90;1.00;;;;;;5076057;28;20041;-76
2022/03/19 07:53:08;;;;;;;68.28;37.05;;;7.30;1.00;;;;;;5075592;28;20068;-75
2022/03/19 07:55:36;;;;;;;67.75;36.50;;;7.50;1.00;;;;;;5073921;28;20040;-76
2022/03/19 07:58:04;;;;;;;64.85;37.35;;;7.60;1.00;;;;;;5071552;28;20036;-75
2022/03/19 08:00:33;;;;;;;76.80;40.72;;;7.40;1.00;;;;;;5066332;28;20049;-76
2022/03/19 08:03:00;;;;;;;62.25;36.00;;;7.40;1.00;;;;;;5074099;28;20082;-76
2022/03/19 08:05:28;;;;;;;70.07;38.15;;;7.50;1.00;;;;;;5077131;28;20056;-75
2022/03/19 08:07:55;;;;;;;61.40;36.15;;;7.50;1.00;;;;;;5075884;28;20043;-75
2022/03/19 08:10:24;;;;;;;63.10;33.47;;;7.60;1.00;;;;;;5075774;28;20138;-78
2022/03/19 08:13:00;;;;;;;63.80;34.55;;;7.70;1.00;;;;;;5074893;28;20067;-75
2022/03/19 08:15:28;;;;;;;50.88;27.33;;;7.70;1.00;;;;;;5069778;28;20095;-79
2022/03/19 08:17:58;;;;;;;47.25;26.52;;;7.80;1.00;;;;;;5058732;28;20045;-77
2022/03/19 08:20:25;;;;;;;44.33;23.70;;;7.90;1.00;;;;;;5080821;28;20040;-77
2022/03/19 08:22:58;;;;;;;38.80;22.48;;;8.10;1.00;;;;;;5088102;28;20100;-78
2022/03/19 08:25:26;;;;;;;50.10;28.38;;;8.10;1.00;;;;;;5088956;28;20045;-79
2022/03/19 08:27:54;;;;;;;60.67;32.13;;;8.10;1.00;;;;;;5091757;28;20049;-77
2022/03/19 08:30:22;;;;;;;53.05;30.83;;;8.30;1.00;;;;;;5090679;28;20051;-76
2022/03/19 08:32:49;;;;;;;59.25;32.30;;;8.50;1.00;;;;;;5075638;28;20067;-74
2022/03/19 08:35:18;;;;;;;62.17;34.38;;;8.70;1.00;;;;;;5099501;28;20067;-76
2022/03/19 08:37:46;;;;;;;61.13;35.05;;;8.90;1.00;;;;;;5091743;28;20072;-75
2022/03/19 08:40:15;;;;;;;66.70;35.88;;;9.10;1.00;;;;;;5076621;28;20049;-75
2022/03/19 08:42:44;;;;;;;64.32;34.70;;;9.20;1.00;;;;;;5075764;28;20118;-75
2022/03/19 08:45:11;;;;;;;56.95;32.72;;;9.50;1.00;;;;;;5079438;28;20086;-75
2022/03/19 08:47:39;;;;;;;62.33;33.63;;;9.60;1.00;;;;;;5089002;28;20120;-75
2022/03/19 08:50:08;;;;;;;52.83;31.45;;;9.70;1.00;;;;;;5079819;28;20058;-75
2022/03/19 08:52:37;;;;;;;48.72;28.25;;;9.70;1.00;;;;;;5075800;28;20070;-75
2022/03/19 08:55:05;;;;;;;53.28;30.05;;;9.90;1.00;;;;;;5074507;28;20044;-74
2022/03/19 08:57:33;;;;;;;44.47;25.67;;;9.90;1.00;;;;;;5075606;28;20131;-77
2022/03/19 09:00:01;;;;;;;41.60;25.08;;;10.10;1.00;;;;;;5078498;28;20044;-75
2022/03/19 09:02:29;;;;;;;43.35;24.58;;;10.00;1.00;;;;;;5074991;28;20068;-75
2022/03/19 09:04:57;;;;;;;48.92;25.48;;;10.10;1.00;;;;;;5073222;28;20045;-76
2022/03/19 09:07:25;;;;;;;42.28;23.95;;;10.20;1.00;;;;;;5076737;28;20051;-75
2022/03/19 09:09:54;;;;;;;42.72;23.52;;;10.30;1.00;;;;;;5079418;28;20557;-76
2022/03/19 09:12:23;;;;;;;39.20;23.42;;;10.00;1.00;;;;;;5086595;28;20131;-76
2022/03/19 09:14:51;;;;;;;41.38;24.00;;;10.00;1.00;;;;;;5074653;28;20048;-76
2022/03/19 09:17:19;;;;;;;41.00;24.75;;;10.20;1.00;;;;;;5073437;28;20078;-76
2022/03/19 09:19:46;;;;;;;46.72;26.92;;;10.40;1.00;;;;;;5075548;28;20071;-76
2022/03/19 09:22:14;;;;;;;43.13;24.90;;;10.60;1.00;;;;;;5073610;28;20415;-76
2022/03/19 09:24:41;;;;;;;38.28;24.40;;;11.00;1.00;;;;;;5075373;28;20041;-76
2022/03/19 09:27:10;;;;;;;38.53;24.65;;;11.00;1.00;;;;;;5075757;28;20044;-78
2022/03/19 09:29:38;;;;;;;25.90;16.80;;;11.10;1.00;;;;;;5073860;28;20041;-78
2022/03/19 09:32:06;;;;;;;31.75;18.98;;;11.40;1.00;;;;;;5074397;28;20066;-78
2022/03/19 09:34:34;;;;;;;31.58;19.27;;;11.50;1.00;;;;;;5073214;28;20422;-76
2022/03/19 09:37:01;;;;;;;34.13;19.15;;;11.60;1.00;;;;;;5076085;28;20135;-78
2022/03/19 09:39:29;;;;;;;27.20;17.58;;;11.90;1.00;;;;;;5080930;28;20036;-76
2022/03/19 09:41:56;;;;;;;32.28;16.00;;;11.70;1.00;;;;;;5080014;28;20087;-75
2022/03/19 09:44:27;;;;;;;20.42;13.90;;;11.60;1.00;;;;;;5076903;28;20054;-78
2022/03/19 09:46:55;;;;;;;37.55;15.25;;;11.50;1.00;;;;;;5077118;28;20049;-79
2022/03/19 09:49:23;;;;;;;25.23;14.05;;;11.40;1.00;;;;;;5077849;28;20045;-76
2022/03/19 09:51:54;;;;;;;23.45;14.98;;;11.10;1.00;;;;;;5080502;28;20048;-77
2022/03/19 09:54:22;;;;;;;26.23;15.55;;;10.90;1.00;;;;;;5079264;28;20056;-75
2022/03/19 09:56:51;;;;;;;19.45;12.85;;;11.20;1.00;;;;;;5076031;28;20505;-75
2022/03/19 09:59:18;;;;;;;26.67;13.80;;;11.20;1.00;;;;;;5077851;28;20040;-75
2022/03/19 10:01:48;;;;;;;19.30;12.45;;;11.50;1.00;;;;;;5076387;28;20047;-74
2022/03/19 10:04:17;;;;;;;20.02;12.07;;;11.80;1.00;;;;;;5077581;28;20393;-76
2022/03/19 10:09:45;;;;;;;19.13;12.38;;;11.90;1.00;;;;;;5077250;28;20130;-76
2022/03/19 10:12:15;;;;;;;21.30;11.50;;;11.60;1.00;;;;;;5076244;28;20143;-77
2022/03/19 10:14:42;;;;;;;17.48;11.40;;;11.30;1.00;;;;;;5078978;28;20048;-76
2022/03/19 10:17:11;;;;;;;21.77;11.23;;;11.20;1.00;;;;;;5079044;28;20068;-75
2022/03/19 10:19:51;;;;;;;20.27;10.70;;;11.20;1.00;;;;;;5080091;28;20040;-75
2022/03/19 10:22:26;;;;;;;16.58;11.32;;;11.10;1.00;;;;;;5078869;28;20043;-76
2022/03/19 10:24:59;;;;;;;16.35;10.93;;;11.30;1.00;;;;;;5077238;28;20044;-75
2022/03/19 10:27:26;;;;;;;17.33;10.90;;;11.20;1.00;;;;;;5077504;28;20085;-75
2022/03/19 10:30:13;;;;;;;18.02;11.27;;;11.30;1.00;;;;;;5077210;28;20048;-75
2022/03/19 10:32:44;;;;;;;26.92;12.73;;;11.60;1.00;;;;;;5075779;28;20053;-75
2022/03/19 10:35:29;;;;;;;20.38;12.75;;;11.50;1.00;;;;;;5076768;28;20071;-75
2022/03/19 10:37:58;;;;;;;21.05;12.45;;;11.20;1.00;;;;;;5076977;28;20135;-77
2022/03/19 10:40:38;;;;;;;19.27;12.80;;;10.70;1.00;;;;;;5077387;28;20048;-77
2022/03/19 10:43:07;;;;;;;21.50;12.40;;;10.70;1.00;;;;;;5077593;28;20049;-78
2022/03/19 10:45:42;;;;;;;19.65;11.68;;;10.40;1.00;;;;;;5077970;28;20051;-77
2022/03/19 10:48:12;;;;;;;19.58;12.00;;;10.50;1.00;;;;;;5074873;28;20131;-77
2022/03/19 10:50:41;;;;;;;19.60;11.25;;;10.40;1.00;;;;;;5076009;28;20082;-77
2022/03/19 10:53:09;;;;;;;20.20;12.15;;;10.20;1.00;;;;;;5075282;28;20131;-75
2022/03/19 10:55:36;;;;;;;18.98;12.68;;;10.30;1.00;;;;;;5076106;28;20100;-74
2022/03/19 10:58:04;;;;;;;16.95;12.25;;;10.50;1.00;;;;;;5075025;28;20044;-75
2022/03/19 11:00:31;;;;;;;20.52;11.73;;;10.20;1.00;;;;;;5077157;28;20086;-76
2022/03/19 11:03:02;;;;;;;16.90;11.00;;;10.00;1.00;;;;;;5078924;28;20048;-77
2022/03/19 11:05:35;;;;;;;20.73;11.98;;;10.00;1.00;;;;;;5077770;28;20074;-76
2022/03/19 11:08:04;;;;;;;20.95;11.75;;;10.10;1.00;;;;;;5075328;28;20079;-77
2022/03/19 11:10:31;;;;;;;17.27;11.23;;;10.10;1.00;;;;;;5076573;28;20032;-76
2022/03/19 11:13:00;;;;;;;18.50;10.82;;;9.90;1.00;;;;;;5077459;28;20067;-78
2022/03/19 11:15:33;;;;;;;17.33;11.13;;;10.10;1.00;;;;;;5079176;28;20066;-78
2022/03/19 11:18:03;;;;;;;17.98;11.10;;;10.30;1.00;;;;;;5074963;28;20112;-77
2022/03/19 11:20:33;;;;;;;18.42;11.27;;;10.20;1.00;;;;;;5088535;28;20040;-77
2022/03/19 11:23:03;;;;;;;22.45;12.13;;;10.10;1.00;;;;;;5073990;28;20051;-76
2022/03/19 11:25:38;;;;;;;17.33;10.35;;;10.20;1.00;;;;;;5075821;28;20100;-77
2022/03/19 11:28:08;;;;;;;15.77;9.48;;;10.50;1.00;;;;;;5078263;28;20136;-76
2022/03/19 11:30:37;;;;;;;15.98;10.82;;;10.80;1.00;;;;;;5081139;28;20127;-78
2022/03/19 11:33:18;;;;;;;19.42;10.90;;;10.90;1.00;;;;;;5081608;28;20098;-77
2022/03/19 11:35:48;;;;;;;15.57;10.57;;;10.70;1.00;;;;;;5100007;28;20050;-77
2022/03/19 11:38:17;;;;;;;19.70;11.32;;;10.70;1.00;;;;;;5097544;28;20121;-76
2022/03/19 11:40:47;;;;;;;15.98;11.57;;;10.40;1.00;;;;;;5096762;28;20148;-76
2022/03/19 11:43:29;;;;;;;15.20;10.57;;;10.60;1.00;;;;;;5098333;28;20064;-77
2022/03/19 11:45:59;;;;;;;16.23;10.95;;;10.70;1.00;;;;;;5098753;28;20048;-76
2022/03/19 11:48:45;;;;;;;18.83;11.30;;;10.50;1.00;;;;;;5098399;28;20101;-77
2022/03/19 11:51:38;;;;;;;17.63;12.52;;;10.70;1.00;;;;;;5099197;28;20048;-75
2022/03/19 11:54:09;;;;;;;19.88;11.27;;;10.80;1.00;;;;;;5107846;28;20050;-78
2022/03/19 11:57:08;;;;;;;18.10;11.57;;;10.80;1.00;;;;;;5097164;28;20073;-76
2022/03/19 11:59:47;;;;;;;16.83;11.55;;;10.90;1.00;;;;;;5096208;28;20044;-77
2022/03/19 12:02:15;;;;;;;20.50;12.27;;;11.00;1.00;;;;;;5095538;28;20065;-77
2022/03/19 12:04:47;;;;;;;18.15;12.05;;;11.00;1.00;;;;;;5095531;28;20044;-76
2022/03/19 12:07:40;;;;;;;20.45;12.57;;;11.00;1.00;;;;;;5095803;28;20048;-77
2022/03/19 12:10:11;;;;;;;30.38;15.35;;;10.70;1.00;;;;;;5096830;28;20054;-77
2022/03/19 12:12:40;;;;;;;19.25;11.77;;;10.60;1.00;;;;;;5094623;28;20048;-75
2022/03/19 12:15:50;;;;;;;20.02;13.05;;;10.60;1.00;;;;;;5095474;28;20498;-76
2022/03/19 12:18:25;;;;;;;18.73;12.35;;;10.70;1.00;;;;;;5079423;28;20051;-76
2022/03/19 12:20:54;;;;;;;;;;;10.50;1.00;;;;;;5076719;28;20086;-75
2022/03/19 12:23:23;;;;;;;20.23;11.95;;;10.30;1.00;;;;;;5073489;28;20357;-75
2022/03/19 12:25:54;;;;;;;23.90;11.23;;;10.40;1.00;;;;;;5074688;28;20151;-76
2022/03/19 12:28:22;;;;;;;17.10;10.52;;;10.60;1.00;;;;;;5076648;28;20040;-76
2022/03/19 12:30:50;;;;;;;18.15;10.10;;;10.70;1.00;;;;;;5076340;28;20033;-76
2022/03/19 12:33:18;;;;;;;15.77;10.65;;;10.50;1.00;;;;;;5078067;28;20054;-78
2022/03/19 12:35:46;;;;;;;18.27;11.13;;;10.50;1.00;;;;;;5096728;28;20040;-76
2022/03/19 12:38:28;;;;;;;18.95;11.48;;;10.30;1.00;;;;;;5095774;28;20105;-77
2022/03/19 12:43:41;;;;;;;27.55;16.77;;;10.40;1.00;;;;;;5095527;28;20055;-76
2022/03/19 12:46:08;;;;;;;19.00;11.88;;;10.50;1.00;;;;;;5095960;28;20063;-77
2022/03/19 12:48:39;;;;;;;17.33;11.73;;;10.60;1.00;;;;;;5094294;28;20139;-76
2022/03/19 12:51:07;;;;;;;18.00;11.77;;;10.50;1.00;;;;;;5099794;28;20521;-78
2022/03/19 12:53:38;;;;;;;17.98;11.35;;;10.50;1.00;;;;;;5095482;28;20044;-77
2022/03/19 12:56:11;;;;;;;22.45;11.82;;;10.50;1.00;;;;;;5094113;28;20044;-76
2022/03/19 12:58:39;;;;;;;19.10;11.48;;;10.50;1.00;;;;;;5094079;28;20044;-76